sensor_id;sensor_type;location;lat;lon;timestamp;temperature;humidity
2721;DHT22;1368;49.484;11.112;2023-12-20T00:01:31;7.50;99.90
2721;DHT22;1368;49.484;11.112;2023-12-20T00:03:57;7.60;99.90
2721;DHT22;1368;49.484;11.112;2023-12-20T00:06:23;7.80;99.90
2721;DHT22;1368;49.484;11.112;2023-12-20T00:08:48;7.70;99.90
2721;DHT22;1368;49.484;11.112;2023-12-20T00:11:14;7.70;99.90
2721;DHT22;1368;49.484;11.112;2023-12-20T00:13:39;7.40;99.90
2721;DHT22;1368;49.484;11.112;2023-12-20T00:16:05;7.40;99.90
2721;DHT22;1368;49.484;11.112;2023-12-20T00:18:30;7.40;99.90
2721;DHT22;1368;49.484;11.112;2023-12-20T00:20:56;7.30;99.90
2721;DHT22;1368;49.484;11.112;2023-12-20T00:23:21;7.30;99.90
2721;DHT22;1368;49.484;11.112;2023-12-20T00:25:48;7.30;99.90
2721;DHT22;1368;49.484;11.112;2023-12-20T00:28:14;7.30;99.90
2721;DHT22;1368;49.484;11.112;2023-12-20T00:30:39;7.30;99.90
2721;DHT22;1368;49.484;11.112;2023-12-20T00:33:05;7.30;99.90
2721;DHT22;1368;49.484;11.112;2023-12-20T00:35:30;7.20;99.90
2721;DHT22;1368;49.484;11.112;2023-12-20T00:37:56;6.90;99.90
2721;DHT22;1368;49.484;11.112;2023-12-20T00:40:22;6.90;99.90
2721;DHT22;1368;49.484;11.112;2023-12-20T00:42:47;7.00;99.90
2721;DHT22;1368;49.484;11.112;2023-12-20T00:45:13;7.00;99.90
2721;DHT22;1368;49.484;11.112;2023-12-20T00:47:40;7.00;99.90
2721;DHT22;1368;49.484;11.112;2023-12-20T00:50:06;7.00;99.90
2721;DHT22;1368;49.484;11.112;2023-12-20T00:52:31;7.20;99.90
2721;DHT22;1368;49.484;11.112;2023-12-20T00:54:57;7.10;99.90
2721;DHT22;1368;49.484;11.112;2023-12-20T00:57:22;7.10;99.90
2721;DHT22;1368;49.484;11.112;2023-12-20T00:59:48;7.00;99.90
2721;DHT22;1368;49.484;11.112;2023-12-20T01:02:14;7.00;99.90
2721;DHT22;1368;49.484;11.112;2023-12-20T01:04:40;7.10;99.90
2721;DHT22;1368;49.484;11.112;2023-12-20T01:07:05;7.00;99.90
2721;DHT22;1368;49.484;11.112;2023-12-20T01:09:31;7.10;99.90
2721;DHT22;1368;49.484;11.112;2023-12-20T01:11:56;7.20;99.90
2721;DHT22;1368;49.484;11.112;2023-12-20T01:14:22;7.30;99.90
2721;DHT22;1368;49.484;11.112;2023-12-20T01:16:47;7.20;99.90
2721;DHT22;1368;49.484;11.112;2023-12-20T01:19:13;7.10;99.90
2721;DHT22;1368;49.484;11.112;2023-12-20T01:21:39;7.00;99.90
2721;DHT22;1368;49.484;11.112;2023-12-20T01:24:05;6.90;99.90
2721;DHT22;1368;49.484;11.112;2023-12-20T01:26:30;7.10;99.90
2721;DHT22;1368;49.484;11.112;2023-12-20T01:28:56;6.80;99.90
2721;DHT22;1368;49.484;11.112;2023-12-20T01:31:21;6.70;99.90
2721;DHT22;1368;49.484;11.112;2023-12-20T01:33:47;6.50;99.90
2721;DHT22;1368;49.484;11.112;2023-12-20T01:36:12;6.40;99.90
2721;DHT22;1368;49.484;11.112;2023-12-20T01:38:38;6.40;99.90
2721;DHT22;1368;49.484;11.112;2023-12-20T01:41:04;6.30;99.90
2721;DHT22;1368;49.484;11.112;2023-12-20T01:43:30;6.40;99.90
2721;DHT22;1368;49.484;11.112;2023-12-20T01:45:58;6.40;99.90
2721;DHT22;1368;49.484;11.112;2023-12-20T01:48:25;6.40;99.90
2721;DHT22;1368;49.484;11.112;2023-12-20T01:50:51;6.50;99.90
2721;DHT22;1368;49.484;11.112;2023-12-20T01:53:19;6.50;99.90
2721;DHT22;1368;49.484;11.112;2023-12-20T01:55:45;6.40;99.90
2721;DHT22;1368;49.484;11.112;2023-12-20T01:58:13;6.60;99.90
2721;DHT22;1368;49.484;11.112;2023-12-20T02:00:39;6.60;99.90
2721;DHT22;1368;49.484;11.112;2023-12-20T02:03:05;6.70;99.90
2721;DHT22;1368;49.484;11.112;2023-12-20T02:05:32;6.60;99.90
2721;DHT22;1368;49.484;11.112;2023-12-20T02:07:57;6.60;99.90
2721;DHT22;1368;49.484;11.112;2023-12-20T02:10:23;6.50;99.90
2721;DHT22;1368;49.484;11.112;2023-12-20T02:12:49;6.40;99.90
2721;DHT22;1368;49.484;11.112;2023-12-20T02:15:15;6.40;99.90
2721;DHT22;1368;49.484;11.112;2023-12-20T02:17:40;6.40;99.90
2721;DHT22;1368;49.484;11.112;2023-12-20T02:20:06;6.30;99.90
2721;DHT22;1368;49.484;11.112;2023-12-20T02:22:32;6.30;99.90
2721;DHT22;1368;49.484;11.112;2023-12-20T02:24:58;6.20;99.90
2721;DHT22;1368;49.484;11.112;2023-12-20T02:27:23;6.10;99.90
2721;DHT22;1368;49.484;11.112;2023-12-20T02:29:50;6.10;99.90
2721;DHT22;1368;49.484;11.112;2023-12-20T02:32:19;5.90;99.90
2721;DHT22;1368;49.484;11.112;2023-12-20T02:34:47;5.90;99.90
2721;DHT22;1368;49.484;11.112;2023-12-20T02:37:13;6.00;99.90
2721;DHT22;1368;49.484;11.112;2023-12-20T02:39:38;5.90;99.90
2721;DHT22;1368;49.484;11.112;2023-12-20T02:42:04;5.70;99.90
2721;DHT22;1368;49.484;11.112;2023-12-20T02:44:29;5.80;99.90
2721;DHT22;1368;49.484;11.112;2023-12-20T02:46:55;5.70;99.90
2721;DHT22;1368;49.484;11.112;2023-12-20T02:49:20;5.70;99.90
2721;DHT22;1368;49.484;11.112;2023-12-20T02:51:46;5.70;99.90
2721;DHT22;1368;49.484;11.112;2023-12-20T02:54:11;5.60;99.90
2721;DHT22;1368;49.484;11.112;2023-12-20T02:56:37;5.70;99.90
2721;DHT22;1368;49.484;11.112;2023-12-20T02:59:02;5.60;99.90
2721;DHT22;1368;49.484;11.112;2023-12-20T03:01:30;5.60;99.90
2721;DHT22;1368;49.484;11.112;2023-12-20T03:03:56;5.60;99.90
2721;DHT22;1368;49.484;11.112;2023-12-20T03:06:21;5.50;99.90
2721;DHT22;1368;49.484;11.112;2023-12-20T03:08:47;5.50;99.90
2721;DHT22;1368;49.484;11.112;2023-12-20T03:11:13;5.40;99.90
2721;DHT22;1368;49.484;11.112;2023-12-20T03:13:38;5.40;99.90
2721;DHT22;1368;49.484;11.112;2023-12-20T03:16:13;5.30;99.90
2721;DHT22;1368;49.484;11.112;2023-12-20T03:18:41;5.30;99.90
2721;DHT22;1368;49.484;11.112;2023-12-20T03:21:06;5.20;99.90
2721;DHT22;1368;49.484;11.112;2023-12-20T03:23:32;5.20;99.90
2721;DHT22;1368;49.484;11.112;2023-12-20T03:25:59;5.30;99.90
2721;DHT22;1368;49.484;11.112;2023-12-20T03:28:26;5.40;99.90
2721;DHT22;1368;49.484;11.112;2023-12-20T03:30:51;5.50;99.90
2721;DHT22;1368;49.484;11.112;2023-12-20T03:33:17;5.60;99.90
2721;DHT22;1368;49.484;11.112;2023-12-20T03:35:42;5.60;99.90
2721;DHT22;1368;49.484;11.112;2023-12-20T03:38:08;5.70;99.90
2721;DHT22;1368;49.484;11.112;2023-12-20T03:40:34;5.80;99.90
2721;DHT22;1368;49.484;11.112;2023-12-20T03:42:59;5.60;99.90
2721;DHT22;1368;49.484;11.112;2023-12-20T03:45:25;5.60;99.90
2721;DHT22;1368;49.484;11.112;2023-12-20T03:47:51;5.50;99.90
2721;DHT22;1368;49.484;11.112;2023-12-20T03:50:21;5.60;99.90
2721;DHT22;1368;49.484;11.112;2023-12-20T03:52:47;5.70;99.90
2721;DHT22;1368;49.484;11.112;2023-12-20T03:55:13;5.60;99.90
2721;DHT22;1368;49.484;11.112;2023-12-20T03:57:38;5.40;99.90
2721;DHT22;1368;49.484;11.112;2023-12-20T04:00:04;5.40;99.90
2721;DHT22;1368;49.484;11.112;2023-12-20T04:02:31;5.30;99.90
2721;DHT22;1368;49.484;11.112;2023-12-20T04:04:56;5.20;99.90
2721;DHT22;1368;49.484;11.112;2023-12-20T04:07:22;5.30;99.90
2721;DHT22;1368;49.484;11.112;2023-12-20T04:09:47;5.40;99.90
2721;DHT22;1368;49.484;11.112;2023-12-20T04:12:13;5.40;99.90
2721;DHT22;1368;49.484;11.112;2023-12-20T04:14:39;5.50;99.90
2721;DHT22;1368;49.484;11.112;2023-12-20T04:17:04;5.50;99.90
2721;DHT22;1368;49.484;11.112;2023-12-20T04:19:30;5.40;99.90
2721;DHT22;1368;49.484;11.112;2023-12-20T04:21:55;5.70;99.90
2721;DHT22;1368;49.484;11.112;2023-12-20T04:24:21;5.90;99.90
2721;DHT22;1368;49.484;11.112;2023-12-20T04:26:47;5.80;99.90
2721;DHT22;1368;49.484;11.112;2023-12-20T04:29:13;5.60;99.90
2721;DHT22;1368;49.484;11.112;2023-12-20T04:31:38;5.60;99.90
2721;DHT22;1368;49.484;11.112;2023-12-20T04:34:04;5.90;99.90
2721;DHT22;1368;49.484;11.112;2023-12-20T04:36:29;5.80;99.90
2721;DHT22;1368;49.484;11.112;2023-12-20T04:38:55;5.90;99.90
2721;DHT22;1368;49.484;11.112;2023-12-20T04:41:21;6.10;99.90
2721;DHT22;1368;49.484;11.112;2023-12-20T04:43:46;6.30;99.90
2721;DHT22;1368;49.484;11.112;2023-12-20T04:46:12;6.20;99.90
2721;DHT22;1368;49.484;11.112;2023-12-20T04:48:37;5.90;99.90
2721;DHT22;1368;49.484;11.112;2023-12-20T04:51:03;5.70;99.90
2721;DHT22;1368;49.484;11.112;2023-12-20T04:53:28;5.80;99.90
2721;DHT22;1368;49.484;11.112;2023-12-20T04:55:54;5.80;99.90
2721;DHT22;1368;49.484;11.112;2023-12-20T04:58:19;5.80;99.90
2721;DHT22;1368;49.484;11.112;2023-12-20T05:00:45;5.50;99.90
2721;DHT22;1368;49.484;11.112;2023-12-20T05:03:11;5.40;99.90
2721;DHT22;1368;49.484;11.112;2023-12-20T05:05:36;5.50;99.90
2721;DHT22;1368;49.484;11.112;2023-12-20T05:08:02;5.50;99.90
2721;DHT22;1368;49.484;11.112;2023-12-20T05:10:28;5.40;99.90
2721;DHT22;1368;49.484;11.112;2023-12-20T05:12:53;5.40;99.90
2721;DHT22;1368;49.484;11.112;2023-12-20T05:15:19;5.50;99.90
2721;DHT22;1368;49.484;11.112;2023-12-20T05:17:44;5.50;99.90
2721;DHT22;1368;49.484;11.112;2023-12-20T05:20:10;5.40;99.90
2721;DHT22;1368;49.484;11.112;2023-12-20T05:22:36;5.40;99.90
2721;DHT22;1368;49.484;11.112;2023-12-20T05:25:01;5.50;99.90
2721;DHT22;1368;49.484;11.112;2023-12-20T05:27:27;5.60;99.90
2721;DHT22;1368;49.484;11.112;2023-12-20T05:29:52;5.50;99.90
2721;DHT22;1368;49.484;11.112;2023-12-20T05:32:18;5.70;99.90
2721;DHT22;1368;49.484;11.112;2023-12-20T05:34:44;5.80;99.90
2721;DHT22;1368;49.484;11.112;2023-12-20T05:37:09;5.70;99.90
2721;DHT22;1368;49.484;11.112;2023-12-20T05:39:35;5.60;99.90
2721;DHT22;1368;49.484;11.112;2023-12-20T05:42:00;5.60;99.90
2721;DHT22;1368;49.484;11.112;2023-12-20T05:44:26;5.60;99.90
2721;DHT22;1368;49.484;11.112;2023-12-20T05:46:51;5.60;99.90
2721;DHT22;1368;49.484;11.112;2023-12-20T05:49:17;5.70;99.90
2721;DHT22;1368;49.484;11.112;2023-12-20T05:51:42;5.80;99.90
2721;DHT22;1368;49.484;11.112;2023-12-20T05:54:09;5.70;99.90
2721;DHT22;1368;49.484;11.112;2023-12-20T05:56:35;5.80;99.90
2721;DHT22;1368;49.484;11.112;2023-12-20T05:59:00;5.90;99.90
2721;DHT22;1368;49.484;11.112;2023-12-20T06:01:26;5.90;99.90
2721;DHT22;1368;49.484;11.112;2023-12-20T06:03:51;5.90;99.90
2721;DHT22;1368;49.484;11.112;2023-12-20T06:06:17;5.70;99.90
2721;DHT22;1368;49.484;11.112;2023-12-20T06:08:43;5.90;99.90
2721;DHT22;1368;49.484;11.112;2023-12-20T06:11:09;6.20;99.90
2721;DHT22;1368;49.484;11.112;2023-12-20T06:13:34;6.10;99.90
2721;DHT22;1368;49.484;11.112;2023-12-20T06:16:00;6.00;99.90
2721;DHT22;1368;49.484;11.112;2023-12-20T06:18:26;5.90;99.90
2721;DHT22;1368;49.484;11.112;2023-12-20T06:20:52;6.00;99.90
2721;DHT22;1368;49.484;11.112;2023-12-20T06:23:17;6.10;99.90
2721;DHT22;1368;49.484;11.112;2023-12-20T06:25:44;6.10;99.90
2721;DHT22;1368;49.484;11.112;2023-12-20T06:28:09;6.00;99.90
2721;DHT22;1368;49.484;11.112;2023-12-20T06:30:35;6.00;99.90
2721;DHT22;1368;49.484;11.112;2023-12-20T06:33:01;5.90;99.90
2721;DHT22;1368;49.484;11.112;2023-12-20T06:35:27;5.80;99.90
2721;DHT22;1368;49.484;11.112;2023-12-20T06:37:52;5.80;99.90
2721;DHT22;1368;49.484;11.112;2023-12-20T06:40:18;5.80;99.90
2721;DHT22;1368;49.484;11.112;2023-12-20T06:42:44;5.90;99.90
2721;DHT22;1368;49.484;11.112;2023-12-20T06:45:10;5.80;99.90
2721;DHT22;1368;49.484;11.112;2023-12-20T06:47:35;5.70;99.90
2721;DHT22;1368;49.484;11.112;2023-12-20T06:50:01;5.70;99.90
2721;DHT22;1368;49.484;11.112;2023-12-20T06:52:26;5.80;99.90
2721;DHT22;1368;49.484;11.112;2023-12-20T06:54:52;5.70;99.90
2721;DHT22;1368;49.484;11.112;2023-12-20T06:57:18;5.80;99.90
2721;DHT22;1368;49.484;11.112;2023-12-20T06:59:45;5.90;99.90
2721;DHT22;1368;49.484;11.112;2023-12-20T07:02:10;5.90;99.90
2721;DHT22;1368;49.484;11.112;2023-12-20T07:04:40;6.00;99.90
2721;DHT22;1368;49.484;11.112;2023-12-20T07:07:06;5.90;99.90
2721;DHT22;1368;49.484;11.112;2023-12-20T07:09:32;5.80;99.90
2721;DHT22;1368;49.484;11.112;2023-12-20T07:11:58;5.90;99.90
2721;DHT22;1368;49.484;11.112;2023-12-20T07:14:24;5.80;99.90
2721;DHT22;1368;49.484;11.112;2023-12-20T07:16:50;5.70;99.90
2721;DHT22;1368;49.484;11.112;2023-12-20T07:19:15;5.80;99.90
2721;DHT22;1368;49.484;11.112;2023-12-20T07:21:41;5.70;99.90
2721;DHT22;1368;49.484;11.112;2023-12-20T07:24:06;5.60;99.90
2721;DHT22;1368;49.484;11.112;2023-12-20T07:26:32;5.70;99.90
2721;DHT22;1368;49.484;11.112;2023-12-20T07:28:59;5.70;99.90
2721;DHT22;1368;49.484;11.112;2023-12-20T07:31:24;5.70;99.90
2721;DHT22;1368;49.484;11.112;2023-12-20T07:33:50;5.70;99.90
2721;DHT22;1368;49.484;11.112;2023-12-20T07:36:15;5.80;99.90
2721;DHT22;1368;49.484;11.112;2023-12-20T07:38:41;5.90;99.90
2721;DHT22;1368;49.484;11.112;2023-12-20T07:41:09;5.80;99.90
2721;DHT22;1368;49.484;11.112;2023-12-20T07:43:36;5.90;99.90
2721;DHT22;1368;49.484;11.112;2023-12-20T07:46:06;5.90;99.90
2721;DHT22;1368;49.484;11.112;2023-12-20T07:48:33;6.10;99.90
2721;DHT22;1368;49.484;11.112;2023-12-20T07:50:59;6.10;99.90
2721;DHT22;1368;49.484;11.112;2023-12-20T07:53:24;6.30;99.90
2721;DHT22;1368;49.484;11.112;2023-12-20T07:55:50;6.20;99.90
2721;DHT22;1368;49.484;11.112;2023-12-20T07:58:17;6.20;99.90
2721;DHT22;1368;49.484;11.112;2023-12-20T08:00:43;6.20;99.90
2721;DHT22;1368;49.484;11.112;2023-12-20T08:03:09;6.20;99.90
2721;DHT22;1368;49.484;11.112;2023-12-20T08:05:35;6.20;99.90
2721;DHT22;1368;49.484;11.112;2023-12-20T08:08:00;6.40;99.90
2721;DHT22;1368;49.484;11.112;2023-12-20T08:10:26;6.30;99.90
2721;DHT22;1368;49.484;11.112;2023-12-20T08:12:52;6.30;99.90
2721;DHT22;1368;49.484;11.112;2023-12-20T08:15:18;6.40;99.90
2721;DHT22;1368;49.484;11.112;2023-12-20T08:17:43;6.60;99.90
2721;DHT22;1368;49.484;11.112;2023-12-20T08:20:09;6.60;99.90
2721;DHT22;1368;49.484;11.112;2023-12-20T08:22:34;6.40;99.90
2721;DHT22;1368;49.484;11.112;2023-12-20T08:25:00;6.50;99.90
2721;DHT22;1368;49.484;11.112;2023-12-20T08:27:26;6.50;99.90
2721;DHT22;1368;49.484;11.112;2023-12-20T08:29:52;6.30;99.90
2721;DHT22;1368;49.484;11.112;2023-12-20T08:32:18;6.30;99.90
2721;DHT22;1368;49.484;11.112;2023-12-20T08:34:43;6.20;99.90
2721;DHT22;1368;49.484;11.112;2023-12-20T08:37:09;6.20;99.90
2721;DHT22;1368;49.484;11.112;2023-12-20T08:39:34;6.30;99.90
2721;DHT22;1368;49.484;11.112;2023-12-20T08:42:00;6.20;99.90
2721;DHT22;1368;49.484;11.112;2023-12-20T08:44:25;6.20;99.90
2721;DHT22;1368;49.484;11.112;2023-12-20T08:46:51;6.20;99.90
2721;DHT22;1368;49.484;11.112;2023-12-20T08:49:16;6.10;99.90
2721;DHT22;1368;49.484;11.112;2023-12-20T08:51:42;6.20;99.90
2721;DHT22;1368;49.484;11.112;2023-12-20T08:54:08;6.10;99.90
2721;DHT22;1368;49.484;11.112;2023-12-20T08:56:34;6.10;99.90
2721;DHT22;1368;49.484;11.112;2023-12-20T08:58:59;6.20;99.90
2721;DHT22;1368;49.484;11.112;2023-12-20T09:01:25;6.10;99.90
2721;DHT22;1368;49.484;11.112;2023-12-20T09:03:50;6.20;99.90
2721;DHT22;1368;49.484;11.112;2023-12-20T09:06:16;6.00;99.90
2721;DHT22;1368;49.484;11.112;2023-12-20T09:08:41;5.80;99.90
2721;DHT22;1368;49.484;11.112;2023-12-20T09:11:07;5.70;99.90
2721;DHT22;1368;49.484;11.112;2023-12-20T09:13:32;5.80;99.90
2721;DHT22;1368;49.484;11.112;2023-12-20T09:15:58;5.90;99.90
2721;DHT22;1368;49.484;11.112;2023-12-20T09:18:24;6.00;99.90
2721;DHT22;1368;49.484;11.112;2023-12-20T09:20:49;6.10;99.90
2721;DHT22;1368;49.484;11.112;2023-12-20T09:23:15;6.20;99.90
2721;DHT22;1368;49.484;11.112;2023-12-20T09:25:41;6.00;99.90
2721;DHT22;1368;49.484;11.112;2023-12-20T09:28:06;6.30;99.90
2721;DHT22;1368;49.484;11.112;2023-12-20T09:30:32;6.30;99.90
2721;DHT22;1368;49.484;11.112;2023-12-20T09:32:57;6.40;99.90
2721;DHT22;1368;49.484;11.112;2023-12-20T09:35:23;6.30;99.90
2721;DHT22;1368;49.484;11.112;2023-12-20T09:37:49;6.30;99.90
2721;DHT22;1368;49.484;11.112;2023-12-20T09:40:18;6.30;99.90
2721;DHT22;1368;49.484;11.112;2023-12-20T09:42:56;6.50;99.90
2721;DHT22;1368;49.484;11.112;2023-12-20T09:45:22;6.40;99.90
2721;DHT22;1368;49.484;11.112;2023-12-20T09:47:49;6.50;99.90
2721;DHT22;1368;49.484;11.112;2023-12-20T09:50:15;6.40;99.90
2721;DHT22;1368;49.484;11.112;2023-12-20T09:52:43;6.40;99.90
2721;DHT22;1368;49.484;11.112;2023-12-20T09:55:09;6.30;99.90
2721;DHT22;1368;49.484;11.112;2023-12-20T09:57:35;6.60;99.90
2721;DHT22;1368;49.484;11.112;2023-12-20T10:00:01;6.70;99.90
2721;DHT22;1368;49.484;11.112;2023-12-20T10:02:27;6.80;99.90
2721;DHT22;1368;49.484;11.112;2023-12-20T10:04:53;6.90;99.90
2721;DHT22;1368;49.484;11.112;2023-12-20T10:07:20;6.80;99.90
2721;DHT22;1368;49.484;11.112;2023-12-20T10:09:47;6.70;99.90
2721;DHT22;1368;49.484;11.112;2023-12-20T10:12:13;6.70;99.90
2721;DHT22;1368;49.484;11.112;2023-12-20T10:14:39;6.70;99.90
2721;DHT22;1368;49.484;11.112;2023-12-20T10:17:05;7.10;99.90
2721;DHT22;1368;49.484;11.112;2023-12-20T10:19:32;7.30;99.90
2721;DHT22;1368;49.484;11.112;2023-12-20T10:21:59;7.30;99.90
2721;DHT22;1368;49.484;11.112;2023-12-20T10:24:25;7.40;99.90
2721;DHT22;1368;49.484;11.112;2023-12-20T10:27:04;7.50;99.90
2721;DHT22;1368;49.484;11.112;2023-12-20T10:29:34;7.70;99.90
2721;DHT22;1368;49.484;11.112;2023-12-20T10:31:59;7.80;99.90
2721;DHT22;1368;49.484;11.112;2023-12-20T10:34:25;7.80;99.90
2721;DHT22;1368;49.484;11.112;2023-12-20T10:36:51;7.90;99.90
2721;DHT22;1368;49.484;11.112;2023-12-20T10:39:17;8.10;99.90
2721;DHT22;1368;49.484;11.112;2023-12-20T10:41:46;8.00;99.90
2721;DHT22;1368;49.484;11.112;2023-12-20T10:44:12;7.90;99.90
2721;DHT22;1368;49.484;11.112;2023-12-20T10:46:39;7.70;99.90
2721;DHT22;1368;49.484;11.112;2023-12-20T10:49:07;7.60;99.90
2721;DHT22;1368;49.484;11.112;2023-12-20T10:51:34;7.40;99.90
2721;DHT22;1368;49.484;11.112;2023-12-20T10:54:00;7.00;99.90
2721;DHT22;1368;49.484;11.112;2023-12-20T10:56:26;6.90;99.90
2721;DHT22;1368;49.484;11.112;2023-12-20T10:58:57;7.00;99.90
2721;DHT22;1368;49.484;11.112;2023-12-20T11:01:29;7.00;99.90
2721;DHT22;1368;49.484;11.112;2023-12-20T11:03:55;6.80;99.90
2721;DHT22;1368;49.484;11.112;2023-12-20T11:06:43;6.70;99.90
2721;DHT22;1368;49.484;11.112;2023-12-20T11:12:04;7.00;99.90
2721;DHT22;1368;49.484;11.112;2023-12-20T11:14:48;7.30;99.90
2721;DHT22;1368;49.484;11.112;2023-12-20T11:17:15;7.40;99.90
2721;DHT22;1368;49.484;11.112;2023-12-20T11:22:20;7.60;99.90
2721;DHT22;1368;49.484;11.112;2023-12-20T11:24:51;7.70;99.90
2721;DHT22;1368;49.484;11.112;2023-12-20T11:27:19;7.70;99.90
2721;DHT22;1368;49.484;11.112;2023-12-20T11:29:52;7.80;99.90
2721;DHT22;1368;49.484;11.112;2023-12-20T11:34:59;7.10;99.90
2721;DHT22;1368;49.484;11.112;2023-12-20T11:37:35;7.10;99.90
2721;DHT22;1368;49.484;11.112;2023-12-20T11:42:33;7.40;99.90
2721;DHT22;1368;49.484;11.112;2023-12-20T11:44:59;7.30;99.90
2721;DHT22;1368;49.484;11.112;2023-12-20T11:47:29;7.30;99.90
2721;DHT22;1368;49.484;11.112;2023-12-20T11:49:55;7.30;99.90
2721;DHT22;1368;49.484;11.112;2023-12-20T11:52:21;7.20;99.90
2721;DHT22;1368;49.484;11.112;2023-12-20T11:54:47;7.40;99.90
2721;DHT22;1368;49.484;11.112;2023-12-20T11:57:13;7.40;99.90
2721;DHT22;1368;49.484;11.112;2023-12-20T11:59:39;7.30;99.90
2721;DHT22;1368;49.484;11.112;2023-12-20T12:02:05;7.10;99.90
2721;DHT22;1368;49.484;11.112;2023-12-20T12:04:30;7.00;99.90
2721;DHT22;1368;49.484;11.112;2023-12-20T12:06:56;6.80;99.90
2721;DHT22;1368;49.484;11.112;2023-12-20T12:09:22;6.90;99.90
2721;DHT22;1368;49.484;11.112;2023-12-20T12:11:47;7.10;99.90
2721;DHT22;1368;49.484;11.112;2023-12-20T12:14:13;7.10;99.90
2721;DHT22;1368;49.484;11.112;2023-12-20T12:16:39;7.20;99.90
2721;DHT22;1368;49.484;11.112;2023-12-20T12:19:06;7.50;99.90
2721;DHT22;1368;49.484;11.112;2023-12-20T12:21:32;7.50;99.90
2721;DHT22;1368;49.484;11.112;2023-12-20T12:24:07;7.70;99.90
2721;DHT22;1368;49.484;11.112;2023-12-20T12:26:32;7.60;99.90
2721;DHT22;1368;49.484;11.112;2023-12-20T12:28:58;7.50;99.90
2721;DHT22;1368;49.484;11.112;2023-12-20T12:31:23;7.60;99.90
2721;DHT22;1368;49.484;11.112;2023-12-20T12:33:51;7.70;99.90
2721;DHT22;1368;49.484;11.112;2023-12-20T12:36:16;7.90;99.90
2721;DHT22;1368;49.484;11.112;2023-12-20T12:38:43;7.90;99.90
2721;DHT22;1368;49.484;11.112;2023-12-20T12:41:08;7.60;99.90
2721;DHT22;1368;49.484;11.112;2023-12-20T12:43:35;7.30;99.90
2721;DHT22;1368;49.484;11.112;2023-12-20T12:46:01;7.30;99.90
2721;DHT22;1368;49.484;11.112;2023-12-20T12:48:26;7.40;99.90
2721;DHT22;1368;49.484;11.112;2023-12-20T12:50:54;7.70;99.90
2721;DHT22;1368;49.484;11.112;2023-12-20T12:53:19;7.60;99.90
2721;DHT22;1368;49.484;11.112;2023-12-20T12:55:45;7.30;99.90
2721;DHT22;1368;49.484;11.112;2023-12-20T12:58:11;7.10;99.90
2721;DHT22;1368;49.484;11.112;2023-12-20T13:00:37;7.00;99.90
2721;DHT22;1368;49.484;11.112;2023-12-20T13:03:02;7.10;99.90
2721;DHT22;1368;49.484;11.112;2023-12-20T13:05:29;7.20;99.90
2721;DHT22;1368;49.484;11.112;2023-12-20T13:07:55;7.20;99.90
2721;DHT22;1368;49.484;11.112;2023-12-20T13:10:21;7.20;99.90
2721;DHT22;1368;49.484;11.112;2023-12-20T13:12:47;7.10;99.90
2721;DHT22;1368;49.484;11.112;2023-12-20T13:15:12;7.00;99.90
2721;DHT22;1368;49.484;11.112;2023-12-20T13:17:38;7.00;99.90
2721;DHT22;1368;49.484;11.112;2023-12-20T13:20:04;7.10;99.90
2721;DHT22;1368;49.484;11.112;2023-12-20T13:22:29;7.20;99.90
2721;DHT22;1368;49.484;11.112;2023-12-20T13:24:55;7.40;99.90
2721;DHT22;1368;49.484;11.112;2023-12-20T13:27:20;7.40;99.90
2721;DHT22;1368;49.484;11.112;2023-12-20T13:29:46;7.50;99.90
2721;DHT22;1368;49.484;11.112;2023-12-20T13:32:11;7.60;99.90
2721;DHT22;1368;49.484;11.112;2023-12-20T13:34:37;7.30;99.90
2721;DHT22;1368;49.484;11.112;2023-12-20T13:37:03;7.10;99.90
2721;DHT22;1368;49.484;11.112;2023-12-20T13:39:29;7.10;99.90
2721;DHT22;1368;49.484;11.112;2023-12-20T13:41:56;7.00;99.90
2721;DHT22;1368;49.484;11.112;2023-12-20T13:44:22;6.90;99.90
2721;DHT22;1368;49.484;11.112;2023-12-20T13:46:49;6.80;99.90
2721;DHT22;1368;49.484;11.112;2023-12-20T13:49:15;6.80;99.90
2721;DHT22;1368;49.484;11.112;2023-12-20T13:51:41;7.00;99.90
2721;DHT22;1368;49.484;11.112;2023-12-20T13:54:06;7.10;99.90
2721;DHT22;1368;49.484;11.112;2023-12-20T13:56:32;7.20;99.90
2721;DHT22;1368;49.484;11.112;2023-12-20T13:58:58;7.10;99.90
2721;DHT22;1368;49.484;11.112;2023-12-20T14:01:25;7.00;99.90
2721;DHT22;1368;49.484;11.112;2023-12-20T14:03:52;7.00;99.90
2721;DHT22;1368;49.484;11.112;2023-12-20T14:06:17;7.00;99.90
2721;DHT22;1368;49.484;11.112;2023-12-20T14:08:43;7.00;99.90
2721;DHT22;1368;49.484;11.112;2023-12-20T14:11:09;6.90;99.90
2721;DHT22;1368;49.484;11.112;2023-12-20T14:13:34;6.90;99.90
2721;DHT22;1368;49.484;11.112;2023-12-20T14:16:00;6.90;99.90
2721;DHT22;1368;49.484;11.112;2023-12-20T14:18:27;7.00;99.90
2721;DHT22;1368;49.484;11.112;2023-12-20T14:20:53;6.90;99.90
2721;DHT22;1368;49.484;11.112;2023-12-20T14:23:19;6.70;99.90
2721;DHT22;1368;49.484;11.112;2023-12-20T14:25:44;6.70;99.90
2721;DHT22;1368;49.484;11.112;2023-12-20T14:28:10;6.90;99.90
2721;DHT22;1368;49.484;11.112;2023-12-20T14:30:39;6.80;99.90
2721;DHT22;1368;49.484;11.112;2023-12-20T14:33:04;6.90;99.90
2721;DHT22;1368;49.484;11.112;2023-12-20T14:35:30;6.90;99.90
2721;DHT22;1368;49.484;11.112;2023-12-20T14:37:55;6.90;99.90
2721;DHT22;1368;49.484;11.112;2023-12-20T14:40:21;7.00;99.90
2721;DHT22;1368;49.484;11.112;2023-12-20T14:42:47;6.70;99.90
2721;DHT22;1368;49.484;11.112;2023-12-20T14:45:13;6.50;99.90
2721;DHT22;1368;49.484;11.112;2023-12-20T14:47:39;6.40;99.90
2721;DHT22;1368;49.484;11.112;2023-12-20T14:50:05;6.50;99.90
2721;DHT22;1368;49.484;11.112;2023-12-20T14:52:32;6.50;99.90
2721;DHT22;1368;49.484;11.112;2023-12-20T14:55:02;6.40;99.90
2721;DHT22;1368;49.484;11.112;2023-12-20T14:57:28;6.60;99.90
2721;DHT22;1368;49.484;11.112;2023-12-20T14:59:55;6.50;99.90
2721;DHT22;1368;49.484;11.112;2023-12-20T15:02:20;6.70;99.90
2721;DHT22;1368;49.484;11.112;2023-12-20T15:04:46;6.80;99.90
2721;DHT22;1368;49.484;11.112;2023-12-20T15:07:12;6.90;99.90
2721;DHT22;1368;49.484;11.112;2023-12-20T15:09:37;6.90;99.90
2721;DHT22;1368;49.484;11.112;2023-12-20T15:12:03;6.80;99.90
2721;DHT22;1368;49.484;11.112;2023-12-20T15:14:29;6.60;99.90
2721;DHT22;1368;49.484;11.112;2023-12-20T15:16:55;6.60;99.90
2721;DHT22;1368;49.484;11.112;2023-12-20T15:19:21;6.60;99.90
2721;DHT22;1368;49.484;11.112;2023-12-20T15:21:47;6.60;99.90
2721;DHT22;1368;49.484;11.112;2023-12-20T15:24:12;6.60;99.90
2721;DHT22;1368;49.484;11.112;2023-12-20T15:26:43;6.80;99.90
2721;DHT22;1368;49.484;11.112;2023-12-20T15:29:09;7.00;99.90
2721;DHT22;1368;49.484;11.112;2023-12-20T15:31:37;6.80;99.90
2721;DHT22;1368;49.484;11.112;2023-12-20T15:34:02;6.70;99.90
2721;DHT22;1368;49.484;11.112;2023-12-20T15:36:28;6.80;99.90
2721;DHT22;1368;49.484;11.112;2023-12-20T15:38:54;6.90;99.90
2721;DHT22;1368;49.484;11.112;2023-12-20T15:41:20;6.80;99.90
2721;DHT22;1368;49.484;11.112;2023-12-20T15:43:46;6.90;99.90
2721;DHT22;1368;49.484;11.112;2023-12-20T15:46:11;6.60;99.90
2721;DHT22;1368;49.484;11.112;2023-12-20T15:48:37;6.50;99.90
2721;DHT22;1368;49.484;11.112;2023-12-20T15:51:06;6.40;99.90
2721;DHT22;1368;49.484;11.112;2023-12-20T15:53:32;6.20;99.90
2721;DHT22;1368;49.484;11.112;2023-12-20T15:55:58;6.30;99.90
2721;DHT22;1368;49.484;11.112;2023-12-20T15:58:23;6.30;99.90
2721;DHT22;1368;49.484;11.112;2023-12-20T16:00:49;6.40;99.90
2721;DHT22;1368;49.484;11.112;2023-12-20T16:03:15;6.50;99.90
2721;DHT22;1368;49.484;11.112;2023-12-20T16:05:40;6.30;99.90